Terminal Aerodrome Forecast
Issued by NWS

Home | Current Version | Previous Version | Text Only | Print | Product List | Glossary On
Versions: 1 2 3 4 5 6 7 8 9 10 11 12 13 14 15 16 17 18 19 20 21 22 23 24 25 26 27 28 29 30
000
FTUS41 KRNK 211137
TAFLWB
TAF
KLWB 211137Z 2112/2212 28003KT P6SM SCT060
     FM211400 27015G25KT P6SM BKN050
     FM212300 26007KT P6SM BKN150
     FM220700 26005KT P6SM OVC100 WS019/26038KT=

USA.gov is the U.S. government's official web portal to all federal, state and local government web resources and services.